TimeAST,TemperatureF,Dew PointF,Humidity,Sea Level PressureIn,VisibilityMPH,Wind Direction,Wind SpeedMPH,Gust SpeedMPH,PrecipitationIn,Events,Conditions,WindDirDegrees,DateUTC
12:00 AM,75.2,73.4,94,29.89,6.2,West,5.8,-,N/A,,Scattered Clouds,270,2012-10-14 04:00:00
1:00 AM,75.2,73.4,94,29.89,6.2,West,5.8,-,N/A,,Scattered Clouds,270,2012-10-14 05:00:00
2:00 AM,74,72,91,29.87,5,NNW,4.5,,,,Haze,340,2012-10-14 06:00:00
2:00 AM,75.2,71.6,89,29.86,6.2,NNW,4.6,-,N/A,,Scattered Clouds,340,2012-10-14 06:00:00
3:00 AM,73.4,71.6,94,29.86,6.2,NNW,4.6,-,N/A,,Scattered Clouds,330,2012-10-14 07:00:00
4:00 AM,73.4,73.4,100,29.83,6.2,WNW,5.8,-,N/A,,Scattered Clouds,290,2012-10-14 08:00:00
5:00 AM,73.4,71.6,94,29.83,6.2,NNW,5.8,-,N/A,,Scattered Clouds,340,2012-10-14 09:00:00
6:00 AM,73.4,73.4,100,29.83,6.2,NW,5.8,-,N/A,,Scattered Clouds,320,2012-10-14 10:00:00
7:00 AM,73.4,73.4,100,29.83,6.2,NW,4.6,-,N/A,,Scattered Clouds,320,2012-10-14 11:00:00
8:00 AM,74,73,96,29.87,5,NNW,6.7,,,,Haze,330,2012-10-14 12:00:00
8:00 AM,73.4,73.4,100,29.86,6.2,NNW,5.8,-,N/A,,Scattered Clouds,330,2012-10-14 12:00:00
9:00 AM,75.2,73.4,94,29.86,5.0,Calm,Calm,-,N/A,Rain,Light Rain,0,2012-10-14 13:00:00
10:00 AM,84.2,75.2,74,29.86,6.2,NW,6.9,-,N/A,,Mostly Cloudy,320,2012-10-14 14:00:00
11:00 AM,84,76,71,29.99,6,NW,4.5,,,,Haze,310,2012-10-14 15:00:00
11:00 AM,84.2,75.2,74,29.86,6.2,NW,4.6,-,N/A,,Partly Cloudy,310,2012-10-14 15:00:00
12:00 PM,87.8,73.4,62,29.83,6.2,Calm,Calm,-,N/A,,Mostly Cloudy,0,2012-10-14 16:00:00
1:00 PM,87.8,77.0,70,29.80,6.2,NNW,9.2,-,N/A,,Mostly Cloudy,330,2012-10-14 17:00:00
2:00 PM,89,73,50,29.80,7,NW,11.2,,,,Haze,310,2012-10-14 18:00:00
2:00 PM,89.6,73.4,59,29.80,6.2,NW,11.5,-,N/A,,Scattered Clouds,310,2012-10-14 18:00:00
3:00 PM,91.4,71.6,52,29.74,6.2,NNW,9.2,-,N/A,,Scattered Clouds,330,2012-10-14 19:00:00
4:00 PM,87.8,73.4,62,29.74,6.2,North,12.7,-,N/A,,Mostly Cloudy,360,2012-10-14 20:00:00
5:00 PM,89,73,50,29.75,7,North,11.2,,,,Mostly Cloudy,0,2012-10-14 21:00:00
5:00 PM,89.6,73.4,59,29.74,6.2,North,11.5,-,N/A,,Scattered Clouds,360,2012-10-14 21:00:00
6:00 PM,84.2,73.4,70,29.74,6.2,NNE,9.2,-,N/A,,Scattered Clouds,20,2012-10-14 22:00:00
7:00 PM,80.6,73.4,79,29.77,6.2,NNW,4.6,-,N/A,,Scattered Clouds,330,2012-10-14 23:00:00
8:00 PM,81,73,72,29.78,7,NNW,8.9,,,,Haze,330,2012-10-15 00:00:00
8:00 PM,80.6,73.4,79,29.77,6.2,NNW,9.2,-,N/A,,Scattered Clouds,330,2012-10-15 00:00:00
9:00 PM,78.8,73.4,83,29.80,6.2,South,5.8,-,N/A,,Scattered Clouds,180,2012-10-15 01:00:00
10:00 PM,78.8,75.2,89,29.80,6.2,NW,5.8,-,N/A,,Scattered Clouds,310,2012-10-15 02:00:00
11:00 PM,78,75,88,29.81,7,NNW,8.9,,,,Haze,330,2012-10-15 03:00:00
11:00 PM,78.8,75.2,89,29.80,6.2,NNW,9.2,-,N/A,,Scattered Clouds,330,2012-10-15 03:00:00